sensor_id;sensor_type;location;lat;lon;timestamp;pressure;altitude;pressure_sealevel;temperature;humidity
6393;BME280;3229;42.674;23.282;2023-05-07T00:00:22;94851.94;;;15.26;58.22
6393;BME280;3229;42.674;23.282;2023-05-07T00:02:48;94854.34;;;15.28;58.33
6393;BME280;3229;42.674;23.282;2023-05-07T00:05:17;94858.69;;;15.27;58.23
6393;BME280;3229;42.674;23.282;2023-05-07T00:07:43;94843.41;;;15.18;58.45
6393;BME280;3229;42.674;23.282;2023-05-07T00:10:11;94865.31;;;15.22;58.57
6393;BME280;3229;42.674;23.282;2023-05-07T00:12:39;94864.81;;;15.18;58.56
6393;BME280;3229;42.674;23.282;2023-05-07T00:15:07;94857.41;;;15.15;58.66
6393;BME280;3229;42.674;23.282;2023-05-07T00:17:34;94861.94;;;15.13;58.88
6393;BME280;3229;42.674;23.282;2023-05-07T00:20:01;94852.75;;;15.11;58.99
6393;BME280;3229;42.674;23.282;2023-05-07T00:22:31;94836.34;;;15.03;59.11
6393;BME280;3229;42.674;23.282;2023-05-07T00:24:58;94849.06;;;15.05;58.88
6393;BME280;3229;42.674;23.282;2023-05-07T00:27:25;94847.59;;;15.02;59.07
6393;BME280;3229;42.674;23.282;2023-05-07T00:29:52;94840.81;;;14.93;59.08
6393;BME280;3229;42.674;23.282;2023-05-07T00:32:19;94823.63;;;14.86;59.27
6393;BME280;3229;42.674;23.282;2023-05-07T00:34:46;94830.38;;;14.87;59.24
6393;BME280;3229;42.674;23.282;2023-05-07T00:37:12;94852.09;;;14.92;59.34
6393;BME280;3229;42.674;23.282;2023-05-07T00:39:41;94844.56;;;14.91;59.46
6393;BME280;3229;42.674;23.282;2023-05-07T00:42:07;94845.03;;;14.86;59.43
6393;BME280;3229;42.674;23.282;2023-05-07T00:44:34;94781.06;;;14.41;59.65
6393;BME280;3229;42.674;23.282;2023-05-07T00:47:02;94856.44;;;14.84;59.71
6393;BME280;3229;42.674;23.282;2023-05-07T00:49:37;94854.19;;;14.80;59.78
6393;BME280;3229;42.674;23.282;2023-05-07T00:52:05;94853.72;;;14.77;59.89
6393;BME280;3229;42.674;23.282;2023-05-07T00:54:33;94845.00;;;14.70;59.73
6393;BME280;3229;42.674;23.282;2023-05-07T00:57:02;94844.81;;;14.63;60.10
6393;BME280;3229;42.674;23.282;2023-05-07T00:59:29;94862.84;;;14.71;60.04
6393;BME280;3229;42.674;23.282;2023-05-07T01:01:56;94860.63;;;14.68;60.05
6393;BME280;3229;42.674;23.282;2023-05-07T01:04:23;94852.25;;;14.66;59.97
6393;BME280;3229;42.674;23.282;2023-05-07T01:06:50;94845.31;;;14.59;60.24
6393;BME280;3229;42.674;23.282;2023-05-07T01:09:18;94855.28;;;14.62;60.27
6393;BME280;3229;42.674;23.282;2023-05-07T01:11:47;94860.75;;;14.59;60.25
6393;BME280;3229;42.674;23.282;2023-05-07T01:14:16;94852.38;;;14.57;60.43
6393;BME280;3229;42.674;23.282;2023-05-07T01:16:43;94859.44;;;14.54;60.44
6393;BME280;3229;42.674;23.282;2023-05-07T01:19:10;94854.63;;;14.51;60.61
6393;BME280;3229;42.674;23.282;2023-05-07T01:21:43;94857.50;;;14.48;60.63
6393;BME280;3229;42.674;23.282;2023-05-07T01:24:13;94858.47;;;14.47;60.73
6393;BME280;3229;42.674;23.282;2023-05-07T01:26:41;94862.94;;;14.45;60.80
6393;BME280;3229;42.674;23.282;2023-05-07T01:29:08;94852.81;;;14.44;60.80
6393;BME280;3229;42.674;23.282;2023-05-07T01:31:36;94859.06;;;14.41;61.15
6393;BME280;3229;42.674;23.282;2023-05-07T01:34:04;94852.31;;;14.40;60.97
6393;BME280;3229;42.674;23.282;2023-05-07T01:36:34;94860.19;;;14.39;61.05
6393;BME280;3229;42.674;23.282;2023-05-07T01:39:01;94854.25;;;14.38;61.20
6393;BME280;3229;42.674;23.282;2023-05-07T01:41:31;94848.44;;;14.36;61.35
6393;BME280;3229;42.674;23.282;2023-05-07T01:43:58;94847.81;;;14.34;61.24
6393;BME280;3229;42.674;23.282;2023-05-07T01:46:26;94841.19;;;14.31;61.39
6393;BME280;3229;42.674;23.282;2023-05-07T01:48:53;94840.56;;;14.29;61.52
6393;BME280;3229;42.674;23.282;2023-05-07T01:51:20;94838.00;;;14.29;61.66
6393;BME280;3229;42.674;23.282;2023-05-07T01:53:47;94822.19;;;14.16;61.67
6393;BME280;3229;42.674;23.282;2023-05-07T01:56:16;94836.69;;;14.25;61.71
6393;BME280;3229;42.674;23.282;2023-05-07T01:58:45;94820.91;;;14.20;61.86
6393;BME280;3229;42.674;23.282;2023-05-07T02:01:12;94821.72;;;14.21;61.85
6393;BME280;3229;42.674;23.282;2023-05-07T02:03:39;94814.94;;;14.12;61.82
6393;BME280;3229;42.674;23.282;2023-05-07T02:06:06;94832.31;;;14.18;62.01
6393;BME280;3229;42.674;23.282;2023-05-07T02:08:33;94821.38;;;14.16;62.00
6393;BME280;3229;42.674;23.282;2023-05-07T02:11:00;94825.06;;;14.13;62.01
6393;BME280;3229;42.674;23.282;2023-05-07T02:13:29;94805.56;;;14.02;61.93
6393;BME280;3229;42.674;23.282;2023-05-07T02:15:57;94816.84;;;14.10;61.83
6393;BME280;3229;42.674;23.282;2023-05-07T02:18:24;94818.78;;;14.08;62.05
6393;BME280;3229;42.674;23.282;2023-05-07T02:20:51;94818.94;;;14.06;61.96
6393;BME280;3229;42.674;23.282;2023-05-07T02:23:18;94814.94;;;14.03;62.15
6393;BME280;3229;42.674;23.282;2023-05-07T02:25:45;94820.19;;;14.02;62.17
6393;BME280;3229;42.674;23.282;2023-05-07T02:28:11;94813.94;;;13.96;62.22
6393;BME280;3229;42.674;23.282;2023-05-07T02:30:38;94814.91;;;13.95;62.10
6393;BME280;3229;42.674;23.282;2023-05-07T02:33:07;94812.16;;;13.97;62.11
6393;BME280;3229;42.674;23.282;2023-05-07T02:35:35;94810.06;;;13.92;62.10
6393;BME280;3229;42.674;23.282;2023-05-07T02:38:01;94816.00;;;13.93;62.13
6393;BME280;3229;42.674;23.282;2023-05-07T02:40:28;94813.38;;;13.85;62.24
6393;BME280;3229;42.674;23.282;2023-05-07T02:42:55;94821.59;;;13.88;62.32
6393;BME280;3229;42.674;23.282;2023-05-07T02:45:22;94818.53;;;13.85;62.39
6393;BME280;3229;42.674;23.282;2023-05-07T02:47:49;94813.56;;;13.83;62.35
6393;BME280;3229;42.674;23.282;2023-05-07T02:50:17;94811.28;;;13.80;62.54
6393;BME280;3229;42.674;23.282;2023-05-07T02:52:44;94819.66;;;13.82;62.51
6393;BME280;3229;42.674;23.282;2023-05-07T02:55:11;94819.78;;;13.80;62.58
6393;BME280;3229;42.674;23.282;2023-05-07T02:57:38;94825.91;;;13.79;62.76
6393;BME280;3229;42.674;23.282;2023-05-07T03:00:12;94816.03;;;13.67;62.74
6393;BME280;3229;42.674;23.282;2023-05-07T03:02:39;94834.72;;;13.77;62.69
6393;BME280;3229;42.674;23.282;2023-05-07T03:05:06;94834.88;;;13.75;62.70
6393;BME280;3229;42.674;23.282;2023-05-07T03:07:35;94829.41;;;13.70;62.65
6393;BME280;3229;42.674;23.282;2023-05-07T03:10:02;94836.81;;;13.73;62.58
6393;BME280;3229;42.674;23.282;2023-05-07T03:12:29;94836.81;;;13.73;62.77
6393;BME280;3229;42.674;23.282;2023-05-07T03:14:56;94836.81;;;13.73;62.73
6393;BME280;3229;42.674;23.282;2023-05-07T03:17:23;94836.81;;;13.73;62.83
6393;BME280;3229;42.674;23.282;2023-05-07T03:19:50;94840.19;;;13.74;62.91
6393;BME280;3229;42.674;23.282;2023-05-07T03:22:16;94843.56;;;13.74;62.89
6393;BME280;3229;42.674;23.282;2023-05-07T03:24:45;94841.78;;;13.75;62.89
6393;BME280;3229;42.674;23.282;2023-05-07T03:27:11;94842.59;;;13.75;62.87
6393;BME280;3229;42.674;23.282;2023-05-07T03:29:38;94843.41;;;13.76;62.68
6393;BME280;3229;42.674;23.282;2023-05-07T03:32:05;94843.25;;;13.77;62.89
6393;BME280;3229;42.674;23.282;2023-05-07T03:34:32;94843.91;;;13.79;62.79
6393;BME280;3229;42.674;23.282;2023-05-07T03:36:58;94843.91;;;13.79;62.75
6393;BME280;3229;42.674;23.282;2023-05-07T03:39:25;94843.44;;;13.84;62.66
6393;BME280;3229;42.674;23.282;2023-05-07T03:41:54;94847.78;;;13.84;62.83
6393;BME280;3229;42.674;23.282;2023-05-07T03:44:20;94854.72;;;13.91;62.57
6393;BME280;3229;42.674;23.282;2023-05-07T03:46:47;94852.66;;;13.95;62.53
6393;BME280;3229;42.674;23.282;2023-05-07T03:49:14;94859.09;;;13.99;62.42
6393;BME280;3229;42.674;23.282;2023-05-07T03:51:41;94866.34;;;14.03;62.43
6393;BME280;3229;42.674;23.282;2023-05-07T03:54:08;94866.81;;;14.07;62.64
6393;BME280;3229;42.674;23.282;2023-05-07T03:56:34;94857.22;;;14.09;62.26
6393;BME280;3229;42.674;23.282;2023-05-07T03:59:03;94863.19;;;14.18;62.39
6393;BME280;3229;42.674;23.282;2023-05-07T04:01:29;94860.94;;;14.23;62.25
6393;BME280;3229;42.674;23.282;2023-05-07T04:03:56;94872.38;;;14.28;62.16
6393;BME280;3229;42.674;23.282;2023-05-07T04:06:23;94870.97;;;14.34;62.04
6393;BME280;3229;42.674;23.282;2023-05-07T04:08:50;94879.81;;;14.40;62.05
6393;BME280;3229;42.674;23.282;2023-05-07T04:11:17;94882.72;;;14.45;61.80
6393;BME280;3229;42.674;23.282;2023-05-07T04:13:44;94892.44;;;14.51;61.80
6393;BME280;3229;42.674;23.282;2023-05-07T04:16:12;94895.47;;;14.54;61.58
6393;BME280;3229;42.674;23.282;2023-05-07T04:18:39;94901.44;;;14.63;61.38
6393;BME280;3229;42.674;23.282;2023-05-07T04:21:06;94899.06;;;14.70;61.38
6393;BME280;3229;42.674;23.282;2023-05-07T04:23:39;94906.81;;;14.78;61.32
6393;BME280;3229;42.674;23.282;2023-05-07T04:26:06;94905.19;;;14.85;61.17
6393;BME280;3229;42.674;23.282;2023-05-07T04:28:33;94906.19;;;14.92;61.05
6393;BME280;3229;42.674;23.282;2023-05-07T04:31:00;94912.94;;;15.01;60.86
6393;BME280;3229;42.674;23.282;2023-05-07T04:33:28;94909.91;;;15.06;60.74
6393;BME280;3229;42.674;23.282;2023-05-07T04:35:55;94914.09;;;15.15;60.73
6393;BME280;3229;42.674;23.282;2023-05-07T04:38:22;94909.91;;;15.22;60.66
6393;BME280;3229;42.674;23.282;2023-05-07T04:40:49;94916.53;;;15.33;60.60
6393;BME280;3229;42.674;23.282;2023-05-07T04:43:16;94924.91;;;15.43;60.33
6393;BME280;3229;42.674;23.282;2023-05-07T04:45:43;94918.75;;;15.61;60.18
6393;BME280;3229;42.674;23.282;2023-05-07T04:48:10;94918.28;;;15.90;59.68
6393;BME280;3229;42.674;23.282;2023-05-07T04:50:38;94922.31;;;16.31;59.11
6393;BME280;3229;42.674;23.282;2023-05-07T04:53:06;94921.91;;;16.90;59.57
6393;BME280;3229;42.674;23.282;2023-05-07T04:55:32;94917.72;;;17.58;59.16
6393;BME280;3229;42.674;23.282;2023-05-07T04:57:59;94915.00;;;18.34;58.42
6393;BME280;3229;42.674;23.282;2023-05-07T05:00:27;94914.59;;;19.17;57.38
6393;BME280;3229;42.674;23.282;2023-05-07T05:02:54;94915.09;;;20.05;56.37
6393;BME280;3229;42.674;23.282;2023-05-07T05:05:20;94917.53;;;20.96;55.29
6393;BME280;3229;42.674;23.282;2023-05-07T05:07:48;94899.41;;;21.82;54.26
6393;BME280;3229;42.674;23.282;2023-05-07T05:10:17;94915.97;;;22.86;52.77
6393;BME280;3229;42.674;23.282;2023-05-07T05:12:43;94917.97;;;23.85;51.34
6393;BME280;3229;42.674;23.282;2023-05-07T05:15:11;94921.25;;;24.79;50.19
6393;BME280;3229;42.674;23.282;2023-05-07T05:17:37;94920.97;;;25.71;49.38
6393;BME280;3229;42.674;23.282;2023-05-07T05:20:05;94916.97;;;26.62;48.20
6393;BME280;3229;42.674;23.282;2023-05-07T05:22:32;94922.00;;;27.49;46.96
6393;BME280;3229;42.674;23.282;2023-05-07T05:25:00;94922.09;;;28.39;45.53
6393;BME280;3229;42.674;23.282;2023-05-07T05:27:28;94926.50;;;29.21;44.37
6393;BME280;3229;42.674;23.282;2023-05-07T05:29:55;94927.69;;;29.99;43.33
6393;BME280;3229;42.674;23.282;2023-05-07T05:32:22;94922.63;;;30.72;42.62
6393;BME280;3229;42.674;23.282;2023-05-07T05:34:49;94927.06;;;31.45;41.59
6393;BME280;3229;42.674;23.282;2023-05-07T05:37:16;94930.75;;;32.15;40.96
6393;BME280;3229;42.674;23.282;2023-05-07T05:39:43;94930.34;;;32.83;39.99
6393;BME280;3229;42.674;23.282;2023-05-07T05:42:11;94935.31;;;33.50;39.29
6393;BME280;3229;42.674;23.282;2023-05-07T05:44:38;94940.38;;;34.14;38.68
6393;BME280;3229;42.674;23.282;2023-05-07T05:47:05;94938.97;;;34.75;37.92
6393;BME280;3229;42.674;23.282;2023-05-07T05:49:31;94933.75;;;35.32;37.30
6393;BME280;3229;42.674;23.282;2023-05-07T05:51:59;94930.25;;;35.88;36.63
6393;BME280;3229;42.674;23.282;2023-05-07T05:54:25;94935.72;;;36.43;36.08
6393;BME280;3229;42.674;23.282;2023-05-07T05:56:52;94931.78;;;36.96;35.71
6393;BME280;3229;42.674;23.282;2023-05-07T05:59:20;94936.72;;;37.52;35.12
6393;BME280;3229;42.674;23.282;2023-05-07T06:01:47;94941.66;;;38.04;34.37
6393;BME280;3229;42.674;23.282;2023-05-07T06:04:14;94948.38;;;38.55;34.33
6393;BME280;3229;42.674;23.282;2023-05-07T06:06:41;94942.25;;;39.03;33.51
6393;BME280;3229;42.674;23.282;2023-05-07T06:09:08;94939.34;;;39.48;33.08
6393;BME280;3229;42.674;23.282;2023-05-07T06:11:35;94940.75;;;39.88;32.91
6393;BME280;3229;42.674;23.282;2023-05-07T06:14:02;94935.97;;;40.29;32.41
6393;BME280;3229;42.674;23.282;2023-05-07T06:16:30;94942.59;;;40.70;31.67
6393;BME280;3229;42.674;23.282;2023-05-07T06:18:57;94929.66;;;41.01;31.30
6393;BME280;3229;42.674;23.282;2023-05-07T06:21:23;94939.66;;;41.43;31.18
6393;BME280;3229;42.674;23.282;2023-05-07T06:23:50;94930.84;;;41.75;30.54
6393;BME280;3229;42.674;23.282;2023-05-07T06:26:17;94937.03;;;42.09;30.74
6393;BME280;3229;42.674;23.282;2023-05-07T06:28:44;94931.97;;;42.41;30.25
6393;BME280;3229;42.674;23.282;2023-05-07T06:31:12;94936.34;;;42.70;29.92
6393;BME280;3229;42.674;23.282;2023-05-07T06:33:41;94923.69;;;42.95;29.60
6393;BME280;3229;42.674;23.282;2023-05-07T06:36:08;94920.28;;;43.22;29.42
6393;BME280;3229;42.674;23.282;2023-05-07T06:38:35;94917.19;;;43.48;29.50
6393;BME280;3229;42.674;23.282;2023-05-07T06:41:02;94915.53;;;43.72;29.08
6393;BME280;3229;42.674;23.282;2023-05-07T06:43:29;94907.00;;;43.98;28.79
6393;BME280;3229;42.674;23.282;2023-05-07T06:45:55;94914.19;;;44.22;28.29
6393;BME280;3229;42.674;23.282;2023-05-07T06:48:22;94903.59;;;44.45;28.44
6393;BME280;3229;42.674;23.282;2023-05-07T06:50:50;94884.78;;;44.48;28.48
6393;BME280;3229;42.674;23.282;2023-05-07T06:53:17;94899.03;;;44.80;27.97
6393;BME280;3229;42.674;23.282;2023-05-07T06:55:44;94897.50;;;44.99;28.08
6393;BME280;3229;42.674;23.282;2023-05-07T06:58:11;94904.81;;;45.14;27.77
6393;BME280;3229;42.674;23.282;2023-05-07T07:00:37;94903.94;;;45.29;27.61
6393;BME280;3229;42.674;23.282;2023-05-07T07:03:04;94901.84;;;45.39;27.66
6393;BME280;3229;42.674;23.282;2023-05-07T07:05:31;94913.66;;;45.50;27.03
6393;BME280;3229;42.674;23.282;2023-05-07T07:07:59;94905.78;;;45.61;27.42
6393;BME280;3229;42.674;23.282;2023-05-07T07:10:26;94906.34;;;45.70;26.79
6393;BME280;3229;42.674;23.282;2023-05-07T07:12:53;94901.00;;;45.73;26.87
6393;BME280;3229;42.674;23.282;2023-05-07T07:15:20;94886.63;;;45.69;26.77
6393;BME280;3229;42.674;23.282;2023-05-07T07:17:47;94903.56;;;45.86;26.99
6393;BME280;3229;42.674;23.282;2023-05-07T07:20:14;94903.28;;;45.91;26.99
6393;BME280;3229;42.674;23.282;2023-05-07T07:22:41;94894.09;;;45.95;26.48
6393;BME280;3229;42.674;23.282;2023-05-07T07:25:10;94891.06;;;46.00;27.02
6393;BME280;3229;42.674;23.282;2023-05-07T07:27:37;94894.63;;;46.04;26.54
6393;BME280;3229;42.674;23.282;2023-05-07T07:30:06;94894.63;;;46.04;26.37
6393;BME280;3229;42.674;23.282;2023-05-07T07:32:33;94894.63;;;46.04;26.33
6393;BME280;3229;42.674;23.282;2023-05-07T07:35:00;94880.91;;;45.94;26.75
6393;BME280;3229;42.674;23.282;2023-05-07T07:37:27;94894.94;;;45.99;26.16
6393;BME280;3229;42.674;23.282;2023-05-07T07:39:55;94902.97;;;45.96;26.72
6393;BME280;3229;42.674;23.282;2023-05-07T07:42:23;94905.97;;;45.91;26.15
6393;BME280;3229;42.674;23.282;2023-05-07T07:44:50;94902.06;;;45.88;26.48
6393;BME280;3229;42.674;23.282;2023-05-07T07:47:16;94904.63;;;45.81;26.71
6393;BME280;3229;42.674;23.282;2023-05-07T07:49:43;94905.66;;;45.76;26.09
6393;BME280;3229;42.674;23.282;2023-05-07T07:52:10;94910.19;;;45.69;26.60
6393;BME280;3229;42.674;23.282;2023-05-07T07:54:37;94916.84;;;45.55;26.47
6393;BME280;3229;42.674;23.282;2023-05-07T07:57:04;94907.78;;;45.44;26.66
6393;BME280;3229;42.674;23.282;2023-05-07T07:59:32;94912.59;;;45.35;26.70
6393;BME280;3229;42.674;23.282;2023-05-07T08:01:59;94899.19;;;45.23;26.27
6393;BME280;3229;42.674;23.282;2023-05-07T08:04:26;94897.84;;;45.13;26.64
6393;BME280;3229;42.674;23.282;2023-05-07T08:06:53;94899.16;;;45.03;26.21
6393;BME280;3229;42.674;23.282;2023-05-07T08:09:21;94893.81;;;44.88;26.33
6393;BME280;3229;42.674;23.282;2023-05-07T08:11:48;94895.84;;;44.75;26.92
6393;BME280;3229;42.674;23.282;2023-05-07T08:14:15;94875.56;;;44.49;26.81
6393;BME280;3229;42.674;23.282;2023-05-07T08:16:43;94900.63;;;44.50;26.33
6393;BME280;3229;42.674;23.282;2023-05-07T08:19:10;94893.75;;;44.37;26.58
6393;BME280;3229;42.674;23.282;2023-05-07T08:21:38;94893.72;;;44.21;26.94
6393;BME280;3229;42.674;23.282;2023-05-07T08:24:05;94894.50;;;44.05;26.99
6393;BME280;3229;42.674;23.282;2023-05-07T08:26:32;94891.00;;;43.89;27.01
6393;BME280;3229;42.674;23.282;2023-05-07T08:29:01;94889.72;;;43.71;26.59
6393;BME280;3229;42.674;23.282;2023-05-07T08:31:28;94881.19;;;43.53;27.18
6393;BME280;3229;42.674;23.282;2023-05-07T08:33:56;94889.16;;;43.37;27.25
6393;BME280;3229;42.674;23.282;2023-05-07T08:36:23;94886.75;;;43.20;27.26
6393;BME280;3229;42.674;23.282;2023-05-07T08:38:51;94886.88;;;42.99;26.75
6393;BME280;3229;42.674;23.282;2023-05-07T08:41:18;94884.78;;;42.80;26.76
6393;BME280;3229;42.674;23.282;2023-05-07T08:43:47;94881.44;;;42.58;27.03
6393;BME280;3229;42.674;23.282;2023-05-07T08:46:17;94829.38;;;42.05;27.64
6393;BME280;3229;42.674;23.282;2023-05-07T08:48:44;94862.09;;;42.07;27.37
6393;BME280;3229;42.674;23.282;2023-05-07T08:51:15;94872.81;;;41.95;27.27
6393;BME280;3229;42.674;23.282;2023-05-07T08:53:43;94863.75;;;41.67;27.34
6393;BME280;3229;42.674;23.282;2023-05-07T08:56:10;94864.41;;;41.51;27.76
6393;BME280;3229;42.674;23.282;2023-05-07T08:58:37;94861.06;;;41.33;27.71
6393;BME280;3229;42.674;23.282;2023-05-07T09:01:08;94862.84;;;41.08;28.02
6393;BME280;3229;42.674;23.282;2023-05-07T09:03:36;94858.28;;;40.79;27.99
6393;BME280;3229;42.674;23.282;2023-05-07T09:06:04;94814.88;;;40.27;28.28
6393;BME280;3229;42.674;23.282;2023-05-07T09:08:34;94858.53;;;40.27;28.33
6393;BME280;3229;42.674;23.282;2023-05-07T09:11:02;94839.44;;;39.91;28.41
6393;BME280;3229;42.674;23.282;2023-05-07T09:13:29;94852.22;;;39.68;28.21
6393;BME280;3229;42.674;23.282;2023-05-07T09:15:55;94828.94;;;39.33;28.58
6393;BME280;3229;42.674;23.282;2023-05-07T09:18:23;94844.84;;;39.12;28.86
6393;BME280;3229;42.674;23.282;2023-05-07T09:20:50;94840.28;;;38.87;28.88
6393;BME280;3229;42.674;23.282;2023-05-07T09:23:17;94832.50;;;38.59;28.76
6393;BME280;3229;42.674;23.282;2023-05-07T09:25:45;94830.25;;;38.35;28.92
6393;BME280;3229;42.674;23.282;2023-05-07T09:28:12;94831.72;;;38.10;29.08
6393;BME280;3229;42.674;23.282;2023-05-07T09:30:39;94833.81;;;37.91;29.23
6393;BME280;3229;42.674;23.282;2023-05-07T09:33:07;94832.72;;;37.70;29.26
6393;BME280;3229;42.674;23.282;2023-05-07T09:35:34;94824.47;;;37.49;29.42
6393;BME280;3229;42.674;23.282;2023-05-07T09:38:01;94827.59;;;37.28;29.58
6393;BME280;3229;42.674;23.282;2023-05-07T09:40:29;94828.66;;;37.05;29.42
6393;BME280;3229;42.674;23.282;2023-05-07T09:43:08;94823.56;;;36.81;29.47
6393;BME280;3229;42.674;23.282;2023-05-07T09:45:36;94816.31;;;36.59;29.66
6393;BME280;3229;42.674;23.282;2023-05-07T09:48:05;94815.03;;;36.42;29.58
6393;BME280;3229;42.674;23.282;2023-05-07T09:50:36;94814.53;;;36.27;29.61
6393;BME280;3229;42.674;23.282;2023-05-07T09:53:03;94805.28;;;36.10;29.72
6393;BME280;3229;42.674;23.282;2023-05-07T09:55:30;94799.53;;;35.89;29.34
6393;BME280;3229;42.674;23.282;2023-05-07T09:57:59;94809.75;;;35.82;29.75
6393;BME280;3229;42.674;23.282;2023-05-07T10:00:27;94801.78;;;35.68;29.58
6393;BME280;3229;42.674;23.282;2023-05-07T10:02:56;94807.06;;;35.55;29.63
6393;BME280;3229;42.674;23.282;2023-05-07T10:05:24;94808.66;;;35.37;29.99
6393;BME280;3229;42.674;23.282;2023-05-07T10:07:52;94800.44;;;35.19;29.59
6393;BME280;3229;42.674;23.282;2023-05-07T10:10:19;94793.56;;;35.00;29.58
6393;BME280;3229;42.674;23.282;2023-05-07T10:12:47;94801.59;;;34.94;30.11
6393;BME280;3229;42.674;23.282;2023-05-07T10:15:15;94798.66;;;34.77;30.04
6393;BME280;3229;42.674;23.282;2023-05-07T10:17:43;94799.06;;;34.65;29.96
6393;BME280;3229;42.674;23.282;2023-05-07T10:20:10;94787.59;;;34.51;30.13
6393;BME280;3229;42.674;23.282;2023-05-07T10:22:38;94786.72;;;34.32;30.15
6393;BME280;3229;42.674;23.282;2023-05-07T10:25:14;94776.09;;;34.13;30.26
6393;BME280;3229;42.674;23.282;2023-05-07T10:27:42;94747.44;;;33.86;30.11
6393;BME280;3229;42.674;23.282;2023-05-07T10:30:17;94774.69;;;33.91;30.61
6393;BME280;3229;42.674;23.282;2023-05-07T10:32:49;94771.31;;;33.86;30.27
6393;BME280;3229;42.674;23.282;2023-05-07T10:35:20;94759.78;;;33.71;30.45
6393;BME280;3229;42.674;23.282;2023-05-07T10:37:48;94765.19;;;33.61;30.46
6393;BME280;3229;42.674;23.282;2023-05-07T10:40:16;94766.09;;;33.52;30.54
6393;BME280;3229;42.674;23.282;2023-05-07T10:42:56;94751.91;;;33.32;30.90
6393;BME280;3229;42.674;23.282;2023-05-07T10:45:27;94771.06;;;33.29;30.96
6393;BME280;3229;42.674;23.282;2023-05-07T10:48:11;94769.31;;;33.14;30.69
6393;BME280;3229;42.674;23.282;2023-05-07T10:50:39;94767.78;;;33.03;30.44
6393;BME280;3229;42.674;23.282;2023-05-07T10:53:22;94761.53;;;32.89;30.74
6393;BME280;3229;42.674;23.282;2023-05-07T10:59:33;94760.41;;;32.61;30.71
6393;BME280;3229;42.674;23.282;2023-05-07T11:02:07;94762.03;;;32.46;31.17
6393;BME280;3229;42.674;23.282;2023-05-07T11:04:37;94757.56;;;32.37;30.78
6393;BME280;3229;42.674;23.282;2023-05-07T11:07:29;94761.34;;;32.26;31.09
6393;BME280;3229;42.674;23.282;2023-05-07T11:10:03;94752.94;;;32.13;31.12
6393;BME280;3229;42.674;23.282;2023-05-07T11:12:53;94749.53;;;32.03;31.27
6393;BME280;3229;42.674;23.282;2023-05-07T11:15:40;94755.13;;;31.91;31.06
6393;BME280;3229;42.674;23.282;2023-05-07T11:18:11;94748.25;;;31.80;31.17
6393;BME280;3229;42.674;23.282;2023-05-07T11:20:48;94741.41;;;31.68;31.45
6393;BME280;3229;42.674;23.282;2023-05-07T11:23:55;94736.69;;;31.55;31.07
6393;BME280;3229;42.674;23.282;2023-05-07T11:26:26;94732.75;;;31.42;31.48
6393;BME280;3229;42.674;23.282;2023-05-07T11:28:53;94725.91;;;31.31;31.39
6393;BME280;3229;42.674;23.282;2023-05-07T11:31:23;94728.25;;;31.28;31.28
6393;BME280;3229;42.674;23.282;2023-05-07T11:33:53;94730.38;;;31.20;31.36
6393;BME280;3229;42.674;23.282;2023-05-07T11:36:21;94732.75;;;31.12;31.59
6393;BME280;3229;42.674;23.282;2023-05-07T11:38:48;94731.44;;;30.99;31.75
6393;BME280;3229;42.674;23.282;2023-05-07T11:41:16;94722.72;;;30.88;31.73
6393;BME280;3229;42.674;23.282;2023-05-07T11:43:58;94721.13;;;30.82;31.50
6393;BME280;3229;42.674;23.282;2023-05-07T11:46:26;94718.75;;;30.76;31.58
6393;BME280;3229;42.674;23.282;2023-05-07T11:48:54;94725.31;;;30.68;31.77
6393;BME280;3229;42.674;23.282;2023-05-07T11:51:23;94715.00;;;30.56;31.46
6393;BME280;3229;42.674;23.282;2023-05-07T11:53:51;94725.03;;;30.49;31.52
6393;BME280;3229;42.674;23.282;2023-05-07T11:56:18;94717.91;;;30.44;31.85
6393;BME280;3229;42.674;23.282;2023-05-07T11:58:46;94723.97;;;30.40;31.72
6393;BME280;3229;42.674;23.282;2023-05-07T12:01:14;94720.50;;;30.34;31.63
6393;BME280;3229;42.674;23.282;2023-05-07T12:03:43;94709.41;;;30.22;31.68
6393;BME280;3229;42.674;23.282;2023-05-07T12:06:14;94707.53;;;30.17;31.76
6393;BME280;3229;42.674;23.282;2023-05-07T12:08:42;94709.84;;;30.09;32.11
6393;BME280;3229;42.674;23.282;2023-05-07T12:11:10;94699.56;;;30.02;32.12
6393;BME280;3229;42.674;23.282;2023-05-07T12:13:39;94696.34;;;29.90;31.91
6393;BME280;3229;42.674;23.282;2023-05-07T12:16:06;94700.84;;;29.84;31.87
6393;BME280;3229;42.674;23.282;2023-05-07T12:18:37;94695.78;;;29.78;32.17
6393;BME280;3229;42.674;23.282;2023-05-07T12:21:05;94702.09;;;29.71;31.82
6393;BME280;3229;42.674;23.282;2023-05-07T12:23:35;94699.16;;;29.63;32.19
6393;BME280;3229;42.674;23.282;2023-05-07T12:26:03;94698.59;;;29.56;31.94
6393;BME280;3229;42.674;23.282;2023-05-07T12:28:30;94690.84;;;29.49;32.31
6393;BME280;3229;42.674;23.282;2023-05-07T12:30:57;94680.84;;;29.41;32.22
6393;BME280;3229;42.674;23.282;2023-05-07T12:33:25;94675.25;;;29.32;32.34
6393;BME280;3229;42.674;23.282;2023-05-07T12:35:55;94687.34;;;29.28;32.00
6393;BME280;3229;42.674;23.282;2023-05-07T12:38:22;94675.44;;;29.20;32.05
6393;BME280;3229;42.674;23.282;2023-05-07T12:40:54;94669.84;;;29.12;32.39
6393;BME280;3229;42.674;23.282;2023-05-07T12:43:23;94669.81;;;29.07;32.38
6393;BME280;3229;42.674;23.282;2023-05-07T12:45:52;94661.88;;;29.02;32.58
6393;BME280;3229;42.674;23.282;2023-05-07T12:48:20;94657.59;;;28.95;32.27
6393;BME280;3229;42.674;23.282;2023-05-07T12:50:49;94652.56;;;28.89;32.24
6393;BME280;3229;42.674;23.282;2023-05-07T12:53:16;94645.66;;;28.83;32.47
6393;BME280;3229;42.674;23.282;2023-05-07T12:55:44;94642.22;;;28.77;32.65
6393;BME280;3229;42.674;23.282;2023-05-07T12:58:17;94639.78;;;28.70;32.36
6393;BME280;3229;42.674;23.282;2023-05-07T13:00:44;94632.91;;;28.64;32.63
6393;BME280;3229;42.674;23.282;2023-05-07T13:03:11;94633.09;;;28.58;32.95
6393;BME280;3229;42.674;23.282;2023-05-07T13:05:39;94620.63;;;28.43;32.84
6393;BME280;3229;42.674;23.282;2023-05-07T13:08:05;94639.34;;;28.46;33.02
6393;BME280;3229;42.674;23.282;2023-05-07T13:10:35;94632.44;;;28.40;32.93
6393;BME280;3229;42.674;23.282;2023-05-07T13:13:01;94621.81;;;28.30;32.78
6393;BME280;3229;42.674;23.282;2023-05-07T13:15:30;94622.00;;;28.23;32.99
6393;BME280;3229;42.674;23.282;2023-05-07T13:17:57;94634.06;;;28.19;32.64